createdAt,value
2023-01-18T00:01:23.630Z,2.57
2023-01-18T00:06:23.555Z,2.60
2023-01-18T00:11:23.475Z,2.50
2023-01-18T00:16:23.463Z,2.43
2023-01-18T00:21:23.364Z,2.36
2023-01-18T00:26:23.315Z,2.45
2023-01-18T00:31:23.293Z,2.42
2023-01-18T00:36:23.192Z,2.45
2023-01-18T00:41:23.170Z,2.35
2023-01-18T00:46:23.073Z,2.47
2023-01-18T00:51:22.993Z,2.36
2023-01-18T00:56:22.940Z,2.33
2023-01-18T01:01:22.993Z,2.28
2023-01-18T01:06:22.823Z,2.28
2023-01-18T01:11:22.753Z,2.32
2023-01-18T01:16:22.705Z,2.32
2023-01-18T01:21:22.636Z,2.25
2023-01-18T01:26:22.576Z,2.25
2023-01-18T01:31:22.539Z,2.18
2023-01-18T01:36:22.449Z,2.14
2023-01-18T01:41:22.385Z,2.14
2023-01-18T01:46:22.323Z,2.10
2023-01-18T01:51:22.276Z,2.06
2023-01-18T01:56:22.210Z,2.06
2023-01-18T02:01:22.244Z,2.01
2023-01-18T02:06:22.084Z,2.01
2023-01-18T02:11:22.034Z,1.99
2023-01-18T02:16:21.988Z,1.91
2023-01-18T02:21:21.904Z,1.84
2023-01-18T02:26:21.836Z,1.97
2023-01-18T02:31:21.774Z,1.99
2023-01-18T02:36:21.702Z,1.95
2023-01-18T02:41:21.655Z,2.07
2023-01-18T02:46:21.630Z,2.14
2023-01-18T02:51:21.534Z,2.07
2023-01-18T02:56:21.466Z,2.12
2023-01-18T03:01:21.514Z,2.21
2023-01-18T03:06:21.352Z,2.17
2023-01-18T03:11:21.296Z,2.17
2023-01-18T03:16:21.260Z,2.11
2023-01-18T03:21:21.179Z,2.10
2023-01-18T03:26:21.094Z,1.99
2023-01-18T03:31:21.097Z,1.91
2023-01-18T03:36:20.974Z,1.71
2023-01-18T03:41:20.914Z,1.64
2023-01-18T03:46:20.868Z,1.55
2023-01-18T03:51:20.785Z,1.39
2023-01-18T03:56:20.726Z,1.21
2023-01-18T04:01:20.758Z,1.10
2023-01-18T04:06:20.591Z,0.96
2023-01-18T04:11:20.542Z,0.91
2023-01-18T04:16:20.492Z,0.70
2023-01-18T04:21:20.412Z,0.69
2023-01-18T04:26:20.345Z,0.56
2023-01-18T04:31:20.362Z,0.40
2023-01-18T04:36:20.251Z,0.29
2023-01-18T04:41:20.181Z,0.14
2023-01-18T04:46:20.178Z,0.02
2023-01-18T04:51:20.057Z,-0.10
2023-01-18T04:56:19.979Z,-0.03
2023-01-18T05:01:20.058Z,-0.03
2023-01-18T05:06:19.878Z,0.07
2023-01-18T05:11:19.812Z,0.17
2023-01-18T05:16:19.791Z,0.23
2023-01-18T05:21:19.690Z,0.32
2023-01-18T05:26:19.627Z,0.41
2023-01-18T05:31:19.589Z,0.44
2023-01-18T05:36:19.526Z,0.56
2023-01-18T05:41:19.448Z,0.70
2023-01-18T05:46:19.388Z,0.76
2023-01-18T05:51:19.332Z,0.87
2023-01-18T05:56:19.288Z,0.94
2023-01-18T06:01:19.234Z,1.09
2023-01-18T06:06:19.162Z,1.18
2023-01-18T06:11:19.092Z,1.28
2023-01-18T06:16:19.081Z,1.41
2023-01-18T06:21:18.983Z,1.45
2023-01-18T06:26:18.899Z,1.52
2023-01-18T06:31:18.927Z,1.55
2023-01-18T06:36:18.773Z,1.62
2023-01-18T06:41:18.724Z,1.57
2023-01-18T06:46:18.756Z,1.69
2023-01-18T06:51:18.588Z,1.77
2023-01-18T06:56:18.516Z,1.73
2023-01-18T07:01:18.565Z,1.73
2023-01-18T07:06:18.394Z,1.75
2023-01-18T07:11:18.336Z,1.78
2023-01-18T07:16:18.349Z,1.80
2023-01-18T07:21:18.215Z,1.81
2023-01-18T07:26:18.138Z,1.87
2023-01-18T07:31:18.094Z,1.85
2023-01-18T07:36:18.026Z,1.92
2023-01-18T07:41:17.970Z,1.95
2023-01-18T07:46:17.909Z,2.03
2023-01-18T07:51:17.840Z,2.01
2023-01-18T07:56:17.767Z,2.01
2023-01-18T08:01:17.816Z,2.06
2023-01-18T08:06:17.646Z,2.01
2023-01-18T08:11:17.585Z,2.10
2023-01-18T08:16:17.527Z,2.17
2023-01-18T08:21:17.465Z,2.28
2023-01-18T08:26:17.395Z,2.24
2023-01-18T08:31:17.455Z,2.25
2023-01-18T08:36:17.276Z,2.19
2023-01-18T08:41:17.235Z,2.21
2023-01-18T08:46:20.512Z,2.22
2023-01-18T08:51:17.105Z,2.28
2023-01-18T08:56:17.025Z,2.32
2023-01-18T09:01:17.106Z,2.35
2023-01-18T09:06:16.917Z,2.55
2023-01-18T09:11:16.854Z,2.60
2023-01-18T09:16:16.860Z,2.66
2023-01-18T09:21:16.743Z,2.71
2023-01-18T09:26:16.683Z,2.71
2023-01-18T09:31:16.636Z,2.82
2023-01-18T09:36:16.533Z,2.91
2023-01-18T09:41:16.485Z,3.04
2023-01-18T09:46:16.414Z,3.14
2023-01-18T09:51:16.354Z,3.20
2023-01-18T09:56:16.290Z,3.29
2023-01-18T10:01:16.314Z,3.36
2023-01-18T10:06:16.166Z,3.42
2023-01-18T10:11:16.104Z,3.46
2023-01-18T10:16:18.052Z,3.54
2023-01-18T10:21:15.986Z,3.51
2023-01-18T10:26:15.915Z,3.51
2023-01-18T10:31:19.217Z,3.52
2023-01-18T10:36:15.793Z,3.59
2023-01-18T10:41:15.733Z,3.56
2023-01-18T10:46:15.677Z,3.52
2023-01-18T10:51:15.614Z,3.48
2023-01-18T10:56:15.562Z,3.52
2023-01-18T11:01:15.591Z,3.54
2023-01-18T11:06:15.422Z,3.49
2023-01-18T11:11:15.362Z,3.49
2023-01-18T11:16:15.334Z,3.45
2023-01-18T11:21:15.240Z,3.35
2023-01-18T11:26:15.195Z,3.32
2023-01-18T11:31:15.124Z,3.37
2023-01-18T11:36:15.049Z,3.30
2023-01-18T11:41:14.998Z,3.33
2023-01-18T11:46:15.039Z,3.41
2023-01-18T11:51:14.873Z,3.49
2023-01-18T11:56:14.784Z,3.49
2023-01-18T12:01:14.795Z,3.51
2023-01-18T12:06:14.673Z,3.56
2023-01-18T12:11:14.619Z,3.55
2023-01-18T12:16:21.388Z,3.56
2023-01-18T12:21:14.486Z,3.64
2023-01-18T12:26:14.426Z,3.67
2023-01-18T12:31:14.372Z,3.73
2023-01-18T12:36:14.305Z,3.81
2023-01-18T12:41:14.243Z,3.80
2023-01-18T12:46:14.240Z,3.81
2023-01-18T12:51:14.122Z,3.85
2023-01-18T12:56:14.067Z,3.78
2023-01-18T13:01:19.375Z,3.69
2023-01-18T13:06:13.952Z,3.66
2023-01-18T13:11:13.891Z,3.67
2023-01-18T13:16:13.856Z,3.66
2023-01-18T13:21:13.780Z,3.70
2023-01-18T13:26:13.716Z,3.69
2023-01-18T13:31:13.707Z,3.66
2023-01-18T13:36:13.574Z,3.67
2023-01-18T13:41:13.514Z,3.63
2023-01-18T13:46:13.524Z,3.63
2023-01-18T13:51:13.383Z,3.55
2023-01-18T13:56:13.344Z,3.52
2023-01-18T14:01:13.434Z,3.44
2023-01-18T14:06:13.207Z,3.42
2023-01-18T14:11:13.141Z,3.32
2023-01-18T14:16:13.142Z,3.32
2023-01-18T14:21:13.032Z,3.29
2023-01-18T14:26:12.952Z,3.26
2023-01-18T14:31:12.917Z,3.25
2023-01-18T14:36:12.852Z,3.26
2023-01-18T14:41:12.773Z,3.25
2023-01-18T14:46:16.108Z,3.14
2023-01-18T14:51:12.679Z,3.09
2023-01-18T14:56:12.674Z,3.04
2023-01-18T15:01:12.585Z,3.04
2023-01-18T15:06:12.463Z,2.97
2023-01-18T15:11:12.405Z,2.86
2023-01-18T15:16:12.381Z,2.72
2023-01-18T15:21:12.281Z,2.71
2023-01-18T15:26:12.219Z,2.72
2023-01-18T15:31:12.179Z,2.71
2023-01-18T15:36:12.104Z,2.69
2023-01-18T15:41:12.051Z,2.68
2023-01-18T15:46:12.022Z,2.58
2023-01-18T15:51:11.932Z,2.43
2023-01-18T15:56:11.840Z,2.39
2023-01-18T16:01:11.933Z,2.36
2023-01-18T16:06:11.736Z,2.35
2023-01-18T16:11:11.667Z,2.33
2023-01-18T16:16:11.628Z,2.37
2023-01-18T16:21:11.552Z,2.32
2023-01-18T16:26:11.492Z,2.30
2023-01-18T16:31:17.629Z,2.33
2023-01-18T16:36:11.353Z,2.33
2023-01-18T16:41:11.291Z,2.29
2023-01-18T16:46:11.245Z,2.36
2023-01-18T16:51:11.171Z,2.35
2023-01-18T16:56:11.099Z,2.32
2023-01-18T17:01:11.149Z,2.32
2023-01-18T17:06:10.980Z,2.40
2023-01-18T17:11:10.919Z,2.39
2023-01-18T17:16:10.860Z,2.39
2023-01-18T17:21:10.835Z,2.36
2023-01-18T17:26:10.740Z,2.33
2023-01-18T17:31:10.716Z,2.36
2023-01-18T17:36:10.617Z,2.36
2023-01-18T17:41:13.470Z,2.37
2023-01-18T17:46:10.521Z,2.35
2023-01-18T17:51:10.431Z,2.39
2023-01-18T17:56:10.369Z,2.40
2023-01-18T18:01:10.423Z,2.39
2023-01-18T18:06:12.645Z,2.37
2023-01-18T18:11:10.197Z,2.33
2023-01-18T18:16:18.084Z,2.37
2023-01-18T18:21:11.060Z,2.39
2023-01-18T18:26:09.998Z,2.37
2023-01-18T18:31:09.950Z,2.39
2023-01-18T18:36:09.868Z,2.37
2023-01-18T18:41:09.831Z,2.37
2023-01-18T18:46:09.809Z,2.37
2023-01-18T18:51:09.689Z,2.42
2023-01-18T18:56:10.343Z,2.37
2023-01-18T19:01:09.605Z,2.39
2023-01-18T19:06:09.511Z,2.35
2023-01-18T19:11:09.447Z,2.37
2023-01-18T19:16:09.433Z,2.36
2023-01-18T19:21:09.336Z,2.39
2023-01-18T19:26:09.259Z,2.37
2023-01-18T19:31:09.244Z,2.36
2023-01-18T19:36:09.141Z,2.39
2023-01-18T19:41:09.079Z,2.40
2023-01-18T19:46:09.010Z,2.39
2023-01-18T19:51:20.854Z,2.43
2023-01-18T19:56:09.886Z,2.40
2023-01-18T20:01:08.890Z,2.45
2023-01-18T20:06:08.766Z,2.40
2023-01-18T20:11:08.706Z,2.43
2023-01-18T20:16:08.728Z,2.39
2023-01-18T20:21:08.596Z,2.40
2023-01-18T20:26:08.520Z,2.39
2023-01-18T20:31:08.497Z,2.43
2023-01-18T20:36:08.428Z,2.42
2023-01-18T20:41:08.337Z,2.43
2023-01-18T20:46:08.300Z,2.43
2023-01-18T20:51:08.215Z,2.40
2023-01-18T20:56:14.343Z,2.37
2023-01-18T21:01:09.249Z,2.37
2023-01-18T21:06:09.096Z,2.36
2023-01-18T21:11:07.976Z,2.29
2023-01-18T21:16:07.913Z,2.28
2023-01-18T21:21:07.846Z,2.30
2023-01-18T21:26:07.784Z,2.29
2023-01-18T21:31:07.723Z,2.32
2023-01-18T21:36:07.666Z,2.25
2023-01-18T21:41:07.606Z,2.30
2023-01-18T21:46:07.561Z,2.24
2023-01-18T21:51:07.485Z,2.28
2023-01-18T21:56:07.415Z,2.21
2023-01-18T22:01:07.576Z,2.24
2023-01-18T22:06:07.294Z,2.19
2023-01-18T22:11:07.234Z,2.07
2023-01-18T22:16:07.182Z,2.04
2023-01-18T22:21:07.104Z,2.03
2023-01-18T22:26:07.045Z,2.04
2023-01-18T22:31:07.047Z,1.99
2023-01-18T22:36:06.935Z,1.99
2023-01-18T22:41:06.866Z,1.99
2023-01-18T22:46:06.884Z,1.97
2023-01-18T22:51:06.742Z,2.00
2023-01-18T22:56:06.694Z,1.97
2023-01-18T23:01:06.638Z,2.06
2023-01-18T23:06:06.563Z,2.06
2023-01-18T23:11:06.489Z,2.03
2023-01-18T23:16:06.455Z,1.99
2023-01-18T23:21:06.367Z,1.92
2023-01-18T23:26:06.292Z,1.95
2023-01-18T23:31:06.301Z,1.91
2023-01-18T23:36:06.183Z,1.95
2023-01-18T23:41:06.126Z,1.92
2023-01-18T23:46:06.111Z,1.93
2023-01-18T23:51:05.995Z,1.82
2023-01-18T23:56:05.941Z,1.85
